Weather at Kraljevo Brege Airfield

Public forecast

Using degrees Celsius for public forecast. Weather courtesy of forecast.io.

Closest aviation weather report (METAR) to Kraljevo Brege Airfield

Closest report is Morava Airport, 7.7 nm (14.2 km) NW.

2024/05/30 15:30 (retrieved 38 minutes ago)

LYKV 301530Z VRB01KT 9999 FEW030TCU BKN040 18/14 Q1007 RETS TEMPO 24025KT 4000 TSRA SCT030CB BKN040

Closest aviation forecast (TAF) to Kraljevo Brege Airfield

Closest forecast is Morava Airport, 7.7 nm (14.2 km) NW.

2024/05/30 12:00 (retrieved 4 hours ago)

TAF LYKV 301100Z 3012/3112 24006KT 9999 SCT045 TX26/3014Z TN11/3103Z TEMPO 3012/3018 22020KT 3000 TSRA SCT030CB BKN040 PROB40 TEMPO 3108/3112 4000 SHRA SCT030TCU BKN040